Time;durP1;ratioP1;P1;durP2;ratioP2;P2;SDS_P1;SDS_P2;PMS_P1;PMS_P2;Temp;Humidity;BMP_temperature;BMP_pressure;BME280_temperature;BME280_humidity;BME280_pressure;Samples;Min_cycle;Max_cycle;Signal;HPM_P1;HPM_P2
2021/01/06 00:01:49;;;;;;;;;;;;;;;;;;5030044;28;20410;-63
2021/01/06 00:04:16;;;;;;;;;;;;;;;;;;5031773;28;21234;-63
2021/01/06 00:06:43;;;;;;;;;;;;;;;;;;5032023;28;19929;-63
2021/01/06 00:09:11;;;;;;;;;;;;;;;;;;5027247;28;20430;-63
2021/01/06 00:11:38;;;;;;;;;;;;;;;;;;5022693;28;20368;-63
2021/01/06 00:14:05;;;;;;;;;;;;;;;;;;5029432;28;19931;-64
2021/01/06 00:16:32;;;;;;;;;;;;;;;;;;5032242;28;19981;-63
2021/01/06 00:18:59;;;;;;;;;;;;;;;;;;5032105;28;19947;-63
2021/01/06 00:21:26;;;;;;;;;;;;;;;;;;5032007;28;19929;-63
2021/01/06 00:23:53;;;;;;;;;;;;;;;;;;5032057;28;19925;-63
2021/01/06 00:26:21;;;;;;;;;;;;;;;;;;5032079;28;20379;-64
2021/01/06 00:28:48;;;;;;;;;;;;;;;;;;5031831;28;19978;-62
2021/01/06 00:31:15;;;;;;;;;;;;;;;;;;5031865;28;19929;-63
2021/01/06 00:33:42;;;;;;;;;;;;;;;;;;5030891;28;19959;-62
2021/01/06 00:36:09;;;;;;;;;;;;;;;;;;5031387;28;20210;-62
2021/01/06 00:38:36;;;;;;;;;;;;;;;;;;5031497;28;20353;-62
2021/01/06 00:41:04;;;;;;;;;;;;;;;;;;5031941;28;19925;-63
2021/01/06 00:43:32;;;;;;;;;;;;;;;;;;5018934;28;19933;-62
2021/01/06 00:45:59;;;;;;;;;;;;;;;;;;5019879;28;20015;-62
2021/01/06 00:48:26;;;;;;;;;;;;;;;;;;5031905;28;19933;-62
2021/01/06 00:50:54;;;;;;;;;;;;;;;;;;5032251;28;19932;-63
2021/01/06 00:53:22;;;;;;;;;;;;;;;;;;5031684;28;19933;-63
2021/01/06 00:55:49;;;;;;;;;;;;;;;;;;5032360;28;20012;-64
2021/01/06 00:58:16;;;;;;;;;;;;;;;;;;5030527;28;20332;-65
2021/01/06 01:00:44;;;;;;;;;;;;;;;;;;5031462;28;20016;-64
2021/01/06 01:03:11;;;;;;;;;;;;;;;;;;5031359;28;20420;-64
2021/01/06 01:05:38;;;;;;;;;;;;;;;;;;5032007;28;19925;-63
2021/01/06 01:08:05;;;;;;;;;;;;;;;;;;5030704;28;20012;-63
2021/01/06 01:10:32;;;;;;;;;;;;;;;;;;5031640;28;19965;-63
2021/01/06 01:12:59;;;;;;;;;;;;;;;;;;5031166;28;20270;-62
2021/01/06 01:15:29;;;;;;;;;;;;;;;;;;5031037;28;20292;-62
2021/01/06 01:17:56;;;;;;;;;;;;;;;;;;5031372;28;19925;-62
2021/01/06 01:20:23;;;;;;;;;;;;;;;;;;5031256;28;19979;-63
2021/01/06 01:22:50;;;;;;;;;;;;;;;;;;5031639;28;19940;-64
2021/01/06 01:25:18;;;;;;;;;;;;;;;;;;5032046;28;19932;-63
2021/01/06 01:27:45;;;;;;;;;;;;;;;;;;5030900;28;19971;-62
2021/01/06 01:30:12;;;;;;;;;;;;;;;;;;5030682;28;19931;-62
2021/01/06 01:32:39;;;;;;;;;;;;;;;;;;5031410;28;19929;-64
2021/01/06 01:35:06;;;;;;;;;;;;;;;;;;5031795;28;20024;-63
2021/01/06 01:37:34;;;;;;;;;;;;;;;;;;5030933;28;19980;-63
2021/01/06 01:40:01;;;;;;;;;;;;;;;;;;5031071;28;19936;-62
2021/01/06 01:42:28;;;;;;;;;;;;;;;;;;5032171;28;20008;-62
2021/01/06 01:44:55;;;;;;;;;;;;;;;;;;5031758;28;19925;-62
2021/01/06 01:47:22;;;;;;;;;;;;;;;;;;5030604;28;20372;-62
2021/01/06 01:49:49;;;;;;;;;;;;;;;;;;5030649;28;19931;-64
2021/01/06 01:52:16;;;;;;;;;;;;;;;;;;5030438;28;20016;-63
2021/01/06 01:54:43;;;;;;;;;;;;;;;;;;5031275;28;20015;-62
2021/01/06 01:57:11;;;;;;;;;;;;;;;;;;5030632;28;19939;-63
2021/01/06 01:59:38;;;;;;;;;;;;;;;;;;5030557;28;19925;-63
2021/01/06 02:02:05;;;;;;;;;;;;;;;;;;5047826;23;19925;-72
2021/01/06 02:04:32;;;;;;;;;;;;;;;;;;5004447;28;19965;-71
2021/01/06 02:06:59;;;;;;;;;;;;;;;;;;5004565;28;20115;-70
2021/01/06 02:09:26;;;;;;;;;;;;;;;;;;4999345;28;19929;-69
2021/01/06 02:11:53;;;;;;;;;;;;;;;;;;5007498;28;20028;-69
2021/01/06 02:14:20;;;;;;;;;;;;;;;;;;5009744;28;20404;-70
2021/01/06 02:16:47;;;;;;;;;;;;;;;;;;5009315;28;19939;-69
2021/01/06 02:19:14;;;;;;;;;;;;;;;;;;5010827;28;19932;-69
2021/01/06 02:21:42;;;;;;;;;;;;;;;;;;5009834;28;20029;-68
2021/01/06 02:24:09;;;;;;;;;;;;;;;;;;5010953;28;19926;-68
2021/01/06 02:26:36;;;;;;;;;;;;;;;;;;5010472;28;19925;-69
2021/01/06 02:29:03;;;;;;;;;;;;;;;;;;5009449;28;20716;-68
2021/01/06 02:31:30;;;;;;;;;;;;;;;;;;5010907;28;19956;-68
2021/01/06 02:33:57;;;;;;;;;;;;;;;;;;5009856;28;19926;-68
2021/01/06 02:36:25;;;;;;;;;;;;;;;;;;5010191;28;19993;-68
2021/01/06 02:38:52;;;;;;;;;;;;;;;;;;5009862;28;19925;-68
2021/01/06 02:41:19;;;;;;;;;;;;;;;;;;5010383;28;19925;-68
2021/01/06 02:43:46;;;;;;;;;;;;;;;;;;5010905;28;20004;-70
2021/01/06 02:46:13;;;;;;;;;;;;;;;;;;5009576;28;20373;-68
2021/01/06 02:48:40;;;;;;;;;;;;;;;;;;5010706;28;19926;-69
2021/01/06 02:51:07;;;;;;;;;;;;;;;;;;5010335;28;19930;-69
2021/01/06 02:53:34;;;;;;;;;;;;;;;;;;5009506;28;19947;-68
2021/01/06 02:56:02;;;;;;;;;;;;;;;;;;5003367;28;20306;-68
2021/01/06 02:58:29;;;;;;;;;;;;;;;;;;5014137;28;19973;-68
2021/01/06 03:00:56;;;;;;;;;;;;;;;;;;5012613;28;19984;-71
2021/01/06 03:03:23;;;;;;;;;;;;;;;;;;5013890;28;19925;-68
2021/01/06 03:05:50;;;;;;;;;;;;;;;;;;5013619;28;19980;-69
2021/01/06 03:08:17;;;;;;;;;;;;;;;;;;5013589;28;20477;-68
2021/01/06 03:10:44;;;;;;;;;;;;;;;;;;5012581;28;19936;-68
2021/01/06 03:13:12;;;;;;;;;;;;;;;;;;5013701;28;20300;-68
2021/01/06 03:15:39;;;;;;;;;;;;;;;;;;5013428;28;19976;-68
2021/01/06 03:18:06;;;;;;;;;;;;;;;;;;5012796;28;20306;-68
2021/01/06 03:20:33;;;;;;;;;;;;;;;;;;5011755;28;20039;-68
2021/01/06 03:23:00;;;;;;;;;;;;;;;;;;5013253;28;19929;-68
2021/01/06 03:25:27;;;;;;;;;;;;;;;;;;5013010;28;19979;-68
2021/01/06 03:27:54;;;;;;;;;;;;;;;;;;5013532;28;19936;-68
2021/01/06 03:30:21;;;;;;;;;;;;;;;;;;5008859;28;20405;-68
2021/01/06 03:32:49;;;;;;;;;;;;;;;;;;5014189;28;19930;-71
2021/01/06 03:35:16;;;;;;;;;;;;;;;;;;5012680;28;19926;-68
2021/01/06 03:37:43;;;;;;;;;;;;;;;;;;5012140;28;20389;-69
2021/01/06 03:40:10;;;;;;;;;;;;;;;;;;5012184;28;20000;-68
2021/01/06 03:42:37;;;;;;;;;;;;;;;;;;5013030;28;19964;-68
2021/01/06 03:45:05;;;;;;;;;;;;;;;;;;5012978;28;20016;-68
2021/01/06 03:47:32;;;;;;;;;;;;;;;;;;5010775;28;20024;-70
2021/01/06 03:49:59;;;;;;;;;;;;;;;;;;5010965;28;19929;-68
2021/01/06 03:52:26;;;;;;;;;;;;;;;;;;5013458;28;20144;-68
2021/01/06 03:54:53;;;;;;;;;;;;;;;;;;5012181;28;19925;-72
2021/01/06 03:57:20;;;;;;;;;;;;;;;;;;5010710;28;19929;-73
2021/01/06 03:59:47;;;;;;;;;;;;;;;;;;5011781;28;20381;-69
2021/01/06 04:02:15;;;;;;;;;;;;;;;;;;5012895;28;19930;-69
2021/01/06 04:04:42;;;;;;;;;;;;;;;;;;5012861;28;19937;-69
2021/01/06 04:07:10;;;;;;;;;;;;;;;;;;5013270;28;19929;-68
2021/01/06 04:09:37;;;;;;;;;;;;;;;;;;5010392;28;20024;-68
2021/01/06 04:12:04;;;;;;;;;;;;;;;;;;5012200;28;19968;-69
2021/01/06 04:14:31;;;;;;;;;;;;;;;;;;5009183;28;20040;-70
2021/01/06 04:16:58;;;;;;;;;;;;;;;;;;5012680;28;20024;-72
2021/01/06 04:19:25;;;;;;;;;;;;;;;;;;5011803;28;20008;-69
2021/01/06 04:21:52;;;;;;;;;;;;;;;;;;5004217;28;19937;-70
2021/01/06 04:24:19;;;;;;;;;;;;;;;;;;5011993;28;20008;-70
2021/01/06 04:26:47;;;;;;;;;;;;;;;;;;5012110;28;20038;-70
2021/01/06 04:29:14;;;;;;;;;;;;;;;;;;5012049;28;20399;-70
2021/01/06 04:31:41;;;;;;;;;;;;;;;;;;5012249;28;19925;-69
2021/01/06 04:34:08;;;;;;;;;;;;;;;;;;5011886;28;20337;-69
2021/01/06 04:36:35;;;;;;;;;;;;;;;;;;5012889;28;20008;-69
2021/01/06 04:39:02;;;;;;;;;;;;;;;;;;5011461;28;19948;-69
2021/01/06 04:41:29;;;;;;;;;;;;;;;;;;5011385;28;20437;-70
2021/01/06 04:43:56;;;;;;;;;;;;;;;;;;5013224;28;19980;-70
2021/01/06 04:46:24;;;;;;;;;;;;;;;;;;5012767;28;19975;-70
2021/01/06 04:48:51;;;;;;;;;;;;;;;;;;5011666;28;19930;-72
2021/01/06 04:51:18;;;;;;;;;;;;;;;;;;5012524;28;19929;-70
2021/01/06 04:53:45;;;;;;;;;;;;;;;;;;5012494;28;19935;-70
2021/01/06 04:56:12;;;;;;;;;;;;;;;;;;5010509;28;19952;-69
2021/01/06 04:58:39;;;;;;;;;;;;;;;;;;5011112;28;19932;-70
2021/01/06 05:01:06;;;;;;;;;;;;;;;;;;5010481;28;21871;-69
2021/01/06 05:03:33;;;;;;;;;;;;;;;;;;5012045;28;19925;-70
2021/01/06 05:06:01;;;;;;;;;;;;;;;;;;5011354;28;19973;-71
2021/01/06 05:08:28;;;;;;;;;;;;;;;;;;5011649;28;19983;-69
2021/01/06 05:10:55;;;;;;;;;;;;;;;;;;5010384;28;20448;-69
2021/01/06 05:13:22;;;;;;;;;;;;;;;;;;5011472;28;19925;-72
2021/01/06 05:15:49;;;;;;;;;;;;;;;;;;5011092;28;19929;-69
2021/01/06 05:18:16;;;;;;;;;;;;;;;;;;5009923;28;19925;-70
2021/01/06 05:20:43;;;;;;;;;;;;;;;;;;5010332;28;19925;-71
2021/01/06 05:23:10;;;;;;;;;;;;;;;;;;5011161;28;19925;-69
2021/01/06 05:25:38;;;;;;;;;;;;;;;;;;5012174;28;20029;-70
2021/01/06 05:28:05;;;;;;;;;;;;;;;;;;5011263;28;19935;-70
2021/01/06 05:30:32;;;;;;;;;;;;;;;;;;5010518;28;19940;-70
2021/01/06 05:32:59;;;;;;;;;;;;;;;;;;5011498;28;19930;-70
2021/01/06 05:35:26;;;;;;;;;;;;;;;;;;5011677;28;19929;-70
2021/01/06 05:37:53;;;;;;;;;;;;;;;;;;5010752;28;19932;-69
2021/01/06 05:40:20;;;;;;;;;;;;;;;;;;5010508;28;19952;-70
2021/01/06 05:42:48;;;;;;;;;;;;;;;;;;5011697;28;20016;-69
2021/01/06 05:45:15;;;;;;;;;;;;;;;;;;5010264;28;20016;-70
2021/01/06 05:47:42;;;;;;;;;;;;;;;;;;5012143;28;19932;-69
2021/01/06 05:50:09;;;;;;;;;;;;;;;;;;5010842;28;19980;-70
2021/01/06 05:52:36;;;;;;;;;;;;;;;;;;5012033;28;20031;-69
2021/01/06 05:55:04;;;;;;;;;;;;;;;;;;5011333;28;20373;-69
2021/01/06 05:57:31;;;;;;;;;;;;;;;;;;4996265;28;19940;-70
2021/01/06 05:59:58;;;;;;;;;;;;;;;;;;5005891;28;20019;-69
2021/01/06 06:02:25;;;;;;;;;;;;;;;;;;5008905;28;20012;-69
2021/01/06 06:05:02;;;;;;;;;;;;;;;;;;612123;28;10002112;-69
2021/01/06 06:07:29;;;;;;;;;;;;;;;;;;5011702;28;19925;-69
2021/01/06 06:09:56;;;;;;;;;;;;;;;;;;5010540;28;20459;-69
2021/01/06 06:12:24;;;;;;;;;;;;;;;;;;5006703;28;20377;-68
2021/01/06 06:14:51;;;;;;;;;;;;;;;;;;5009111;28;20047;-71
2021/01/06 06:17:18;;;;;;;;;;;;;;;;;;5011570;28;19926;-69
2021/01/06 06:19:45;;;;;;;;;;;;;;;;;;5010815;28;20500;-69
2021/01/06 06:22:12;;;;;;;;;;;;;;;;;;5011170;28;19961;-70
2021/01/06 06:24:39;;;;;;;;;;;;;;;;;;5010774;28;19929;-68
2021/01/06 06:27:06;;;;;;;;;;;;;;;;;;5011157;28;20387;-68
2021/01/06 06:29:33;;;;;;;;;;;;;;;;;;5010312;28;19932;-68
2021/01/06 06:32:01;;;;;;;;;;;;;;;;;;5013140;28;20341;-69
2021/01/06 06:34:28;;;;;;;;;;;;;;;;;;5014451;28;20393;-69
2021/01/06 06:36:55;;;;;;;;;;;;;;;;;;5014593;28;20000;-69
2021/01/06 06:39:22;;;;;;;;;;;;;;;;;;5014361;28;20459;-70
2021/01/06 06:41:50;;;;;;;;;;;;;;;;;;5013769;28;20031;-69
2021/01/06 06:44:17;;;;;;;;;;;;;;;;;;5013315;28;20385;-70
2021/01/06 06:46:44;;;;;;;;;;;;;;;;;;5014564;28;20468;-69
2021/01/06 06:49:11;;;;;;;;;;;;;;;;;;5008029;28;19941;-69
2021/01/06 06:51:38;;;;;;;;;;;;;;;;;;5011702;28;19929;-69
2021/01/06 06:54:05;;;;;;;;;;;;;;;;;;5014719;28;19961;-69
2021/01/06 06:56:32;;;;;;;;;;;;;;;;;;5012971;28;20372;-69
2021/01/06 06:58:59;;;;;;;;;;;;;;;;;;5013493;28;19929;-69
2021/01/06 07:01:30;;;;;;;;;;;;;;;;;;5013500;28;20289;-69
2021/01/06 07:03:57;;;;;;;;;;;;;;;;;;5004075;28;19929;-69
2021/01/06 07:06:25;;;;;;;;;;;;;;;;;;5010309;28;19938;-70
2021/01/06 07:08:53;;;;;;;;;;;;;;;;;;5008783;28;19968;-70
2021/01/06 07:11:20;;;;;;;;;;;;;;;;;;5010229;28;20011;-71
2021/01/06 07:13:48;;;;;;;;;;;;;;;;;;5010187;28;19929;-69
2021/01/06 07:16:15;;;;;;;;;;;;;;;;;;5009162;28;19925;-69
2021/01/06 07:18:42;;;;;;;;;;;;;;;;;;5001839;28;19935;-70
2021/01/06 07:21:09;;;;;;;;;;;;;;;;;;5010200;28;19929;-69
2021/01/06 07:23:37;;;;;;;;;;;;;;;;;;5009256;28;19939;-70
2021/01/06 07:26:04;;;;;;;;;;;;;;;;;;5010511;28;19969;-70
2021/01/06 07:28:31;;;;;;;;;;;;;;;;;;5011463;28;20019;-70
2021/01/06 07:30:59;;;;;;;;;;;;;;;;;;5009537;28;19979;-73
2021/01/06 07:33:27;;;;;;;;;;;;;;;;;;5006890;28;19925;-72
2021/01/06 07:35:55;;;;;;;;;;;;;;;;;;5010443;28;20032;-70
2021/01/06 07:38:22;;;;;;;;;;;;;;;;;;5008554;28;19960;-69
2021/01/06 07:40:50;;;;;;;;;;;;;;;;;;5010362;28;19955;-72
2021/01/06 07:43:17;;;;;;;;;;;;;;;;;;5008019;28;19929;-74
2021/01/06 07:45:44;;;;;;;;;;;;;;;;;;5009774;28;20476;-71
2021/01/06 07:48:11;;;;;;;;;;;;;;;;;;5006741;28;20221;-73
2021/01/06 07:50:38;;;;;;;;;;;;;;;;;;5009467;28;20029;-74
2021/01/06 07:53:05;;;;;;;;;;;;;;;;;;4991935;28;19936;-73
2021/01/06 07:55:32;;;;;;;;;;;;;;;;;;5008556;28;19925;-71
2021/01/06 07:58:00;;;;;;;;;;;;;;;;;;5006824;28;20361;-71
2021/01/06 08:00:28;;;;;;;;;;;;;;;;;;5007648;28;20024;-71
2021/01/06 08:02:57;;;;;;;;;;;;;;;;;;5008747;28;20423;-70
2021/01/06 08:05:25;;;;;;;;;;;;;;;;;;5010688;28;19972;-71
2021/01/06 08:07:52;;;;;;;;;;;;;;;;;;5008051;28;19930;-72
2021/01/06 08:10:19;;;;;;;;;;;;;;;;;;5007724;28;19936;-74
2021/01/06 08:12:46;;;;;;;;;;;;;;;;;;5008960;28;19933;-71
2021/01/06 08:15:13;;;;;;;;;;;;;;;;;;5008259;28;20024;-70
2021/01/06 08:17:40;;;;;;;;;;;;;;;;;;5007955;28;19929;-70
2021/01/06 08:20:09;;;;;;;;;;;;;;;;;;5004182;28;20097;-69
2021/01/06 08:22:36;;;;;;;;;;;;;;;;;;4998895;28;20675;-71
2021/01/06 08:25:03;;;;;;;;;;;;;;;;;;5008810;28;19929;-69
2021/01/06 08:27:30;;;;;;;;;;;;;;;;;;5006782;28;19929;-71
2021/01/06 08:29:57;;;;;;;;;;;;;;;;;;5006756;28;20020;-69
2021/01/06 08:32:24;;;;;;;;;;;;;;;;;;5007665;28;19948;-70
2021/01/06 08:34:51;;;;;;;;;;;;;;;;;;5006955;28;21178;-69
2021/01/06 08:37:18;;;;;;;;;;;;;;;;;;5008356;28;20009;-69
2021/01/06 08:39:46;;;;;;;;;;;;;;;;;;5004937;28;19930;-69
2021/01/06 08:42:13;;;;;;;;;;;;;;;;;;5008780;28;20025;-69
2021/01/06 08:44:41;;;;;;;;;;;;;;;;;;5005619;28;19929;-69
2021/01/06 08:47:11;;;;;;;;;;;;;;;;;;5006435;28;20360;-69
2021/01/06 08:49:38;;;;;;;;;;;;;;;;;;5004284;28;19972;-69
2021/01/06 08:52:05;;;;;;;;;;;;;;;;;;5006080;28;19985;-69
2021/01/06 08:54:33;;;;;;;;;;;;;;;;;;5007561;28;19926;-69
2021/01/06 08:57:00;;;;;;;;;;;;;;;;;;5007301;28;20030;-69
2021/01/06 08:59:28;;;;;;;;;;;;;;;;;;5003507;28;19959;-69
2021/01/06 09:01:56;;;;;;;;;;;;;;;;;;5006317;28;20459;-69
2021/01/06 09:04:23;;;;;;;;;;;;;;;;;;5006579;28;19933;-69
2021/01/06 09:06:50;;;;;;;;;;;;;;;;;;5006743;28;19933;-69
2021/01/06 09:09:17;;;;;;;;;;;;;;;;;;5006675;28;19972;-69
2021/01/06 09:11:45;;;;;;;;;;;;;;;;;;5007677;28;20006;-68
2021/01/06 09:14:12;;;;;;;;;;;;;;;;;;5007124;28;19929;-69
2021/01/06 09:16:39;;;;;;;;;;;;;;;;;;5006807;28;19934;-69
2021/01/06 09:19:07;;;;;;;;;;;;;;;;;;5006545;28;19929;-69
2021/01/06 09:21:34;;;;;;;;;;;;;;;;;;5005365;28;20290;-69
2021/01/06 09:24:02;;;;;;;;;;;;;;;;;;5004464;28;20011;-68
2021/01/06 09:26:29;;;;;;;;;;;;;;;;;;5004422;28;20355;-69
2021/01/06 09:28:56;;;;;;;;;;;;;;;;;;5006028;28;19930;-69
2021/01/06 09:31:23;;;;;;;;;;;;;;;;;;5006696;28;20418;-68
2021/01/06 09:33:51;;;;;;;;;;;;;;;;;;5005824;28;19930;-69
2021/01/06 09:36:18;;;;;;;;;;;;;;;;;;5007149;28;20358;-68
2021/01/06 09:38:46;;;;;;;;;;;;;;;;;;5004595;28;20384;-69
2021/01/06 09:41:14;;;;;;;;;;;;;;;;;;5005346;28;20377;-68
2021/01/06 09:43:42;;;;;;;;;;;;;;;;;;5005816;28;20350;-69
2021/01/06 09:46:09;;;;;;;;;;;;;;;;;;5007751;28;20372;-68
2021/01/06 09:48:36;;;;;;;;;;;;;;;;;;5005636;28;19967;-68
2021/01/06 09:51:03;;;;;;;;;;;;;;;;;;4996685;28;20362;-68
2021/01/06 09:53:31;;;;;;;;;;;;;;;;;;5005181;28;19925;-68
2021/01/06 09:55:58;;;;;;;;;;;;;;;;;;5005256;28;20309;-68
2021/01/06 09:58:25;;;;;;;;;;;;;;;;;;5006144;28;20499;-68
2021/01/06 10:00:53;;;;;;;;;;;;;;;;;;5005682;28;19976;-66
2021/01/06 10:03:20;;;;;;;;;;;;;;;;;;5004483;28;19929;-67
2021/01/06 10:05:47;;;;;;;;;;;;;;;;;;5001743;28;19988;-67
2021/01/06 10:08:15;;;;;;;;;;;;;;;;;;5004225;28;19929;-66
2021/01/06 10:10:42;;;;;;;;;;;;;;;;;;5001605;28;19925;-67
2021/01/06 10:13:10;;;;;;;;;;;;;;;;;;5009870;28;19939;-69
2021/01/06 10:15:37;;;;;;;;;;;;;;;;;;5009553;28;19989;-67
2021/01/06 10:18:04;;;;;;;;;;;;;;;;;;5009376;28;20107;-67
2021/01/06 10:20:31;;;;;;;;;;;;;;;;;;5009204;28;20286;-66
2021/01/06 10:22:59;;;;;;;;;;;;;;;;;;5008389;28;19936;-66
2021/01/06 10:25:28;;;;;;;;;;;;;;;;;;5007889;28;19932;-66
2021/01/06 10:27:55;;;;;;;;;;;;;;;;;;5010011;28;19995;-68
2021/01/06 10:30:23;;;;;;;;;;;;;;;;;;5010046;28;19988;-68
2021/01/06 10:32:50;;;;;;;;;;;;;;;;;;5010886;28;19940;-66
2021/01/06 10:35:17;;;;;;;;;;;;;;;;;;5009654;28;19949;-66
2021/01/06 10:37:45;;;;;;;;;;;;;;;;;;4994298;28;20020;-66
2021/01/06 10:40:13;;;;;;;;;;;;;;;;;;5007203;28;19940;-66
2021/01/06 10:42:41;;;;;;;;;;;;;;;;;;5009588;28;20021;-67
2021/01/06 10:45:08;;;;;;;;;;;;;;;;;;5010181;28;20444;-66
2021/01/06 10:47:35;;;;;;;;;;;;;;;;;;5006938;28;19940;-67
2021/01/06 10:50:02;;;;;;;;;;;;;;;;;;5006047;28;20515;-67
2021/01/06 10:52:30;;;;;;;;;;;;;;;;;;5007710;28;20064;-68
2021/01/06 10:54:57;;;;;;;;;;;;;;;;;;5007914;28;19973;-68
2021/01/06 10:57:24;;;;;;;;;;;;;;;;;;5005114;28;20090;-67
2021/01/06 10:59:51;;;;;;;;;;;;;;;;;;4997620;28;19995;-67
2021/01/06 11:02:18;;;;;;;;;;;;;;;;;;4957125;28;1352157;-67
2021/01/06 11:04:46;;;;;;;;;;;;;;;;;;5011733;28;20370;-67
2021/01/06 11:07:13;;;;;;;;;;;;;;;;;;5010129;28;19929;-66
2021/01/06 11:09:40;;;;;;;;;;;;;;;;;;5008908;28;20407;-67
2021/01/06 11:12:08;;;;;;;;;;;;;;;;;;5008775;28;20473;-67
2021/01/06 11:14:35;;;;;;;;;;;;;;;;;;5009665;28;19929;-66
2021/01/06 11:17:02;;;;;;;;;;;;;;;;;;5010172;28;20020;-67
2021/01/06 11:19:30;;;;;;;;;;;;;;;;;;5009437;28;20034;-66
2021/01/06 11:21:57;;;;;;;;;;;;;;;;;;5010886;28;20004;-67
2021/01/06 11:24:24;;;;;;;;;;;;;;;;;;5011824;28;19936;-67
2021/01/06 11:26:52;;;;;;;;;;;;;;;;;;5009868;28;19933;-68
2021/01/06 11:29:19;;;;;;;;;;;;;;;;;;5011488;28;19929;-67
2021/01/06 11:31:46;;;;;;;;;;;;;;;;;;5010581;28;19933;-67
2021/01/06 11:34:13;;;;;;;;;;;;;;;;;;5011974;28;19925;-67
2021/01/06 11:36:43;;;;;;;;;;;;;;;;;;5014194;28;19933;-67
2021/01/06 11:39:10;;;;;;;;;;;;;;;;;;5011629;28;19975;-67
2021/01/06 11:41:37;;;;;;;;;;;;;;;;;;5010020;28;19929;-67
2021/01/06 11:44:04;;;;;;;;;;;;;;;;;;5008238;28;19960;-67
2021/01/06 11:46:31;;;;;;;;;;;;;;;;;;5010386;28;20020;-68
2021/01/06 11:48:59;;;;;;;;;;;;;;;;;;5010538;28;20351;-68
2021/01/06 11:51:26;;;;;;;;;;;;;;;;;;5010339;28;19930;-67
2021/01/06 11:53:53;;;;;;;;;;;;;;;;;;5010375;28;20456;-67
2021/01/06 11:56:20;;;;;;;;;;;;;;;;;;5010895;28;19933;-67
2021/01/06 11:58:48;;;;;;;;;;;;;;;;;;5006946;28;19979;-68
2021/01/06 12:01:16;;;;;;;;;;;;;;;;;;5010027;28;19976;-67
2021/01/06 12:03:43;;;;;;;;;;;;;;;;;;5009010;28;19930;-68
2021/01/06 12:06:10;;;;;;;;;;;;;;;;;;5010587;28;19934;-67
2021/01/06 12:08:38;;;;;;;;;;;;;;;;;;5009476;28;19983;-68
2021/01/06 12:11:05;;;;;;;;;;;;;;;;;;5010052;28;20447;-68
2021/01/06 12:13:32;;;;;;;;;;;;;;;;;;5009661;28;19929;-67
2021/01/06 12:16:00;;;;;;;;;;;;;;;;;;5009025;28;19929;-67
2021/01/06 12:18:27;;;;;;;;;;;;;;;;;;5009027;28;20377;-67
2021/01/06 12:20:54;;;;;;;;;;;;;;;;;;4993675;28;20289;-66
2021/01/06 12:23:21;;;;;;;;;;;;;;;;;;5002796;28;20430;-66
2021/01/06 12:25:49;;;;;;;;;;;;;;;;;;5009324;28;19991;-66
2021/01/06 12:28:16;;;;;;;;;;;;;;;;;;5009331;28;19976;-66
2021/01/06 12:30:44;;;;;;;;;;;;;;;;;;5008357;28;19984;-65
2021/01/06 12:33:11;;;;;;;;;;;;;;;;;;5010290;28;20287;-65
2021/01/06 12:35:38;;;;;;;;;;;;;;;;;;5009022;28;19933;-66
2021/01/06 12:38:06;;;;;;;;;;;;;;;;;;5009027;28;19929;-66
2021/01/06 12:40:33;;;;;;;;;;;;;;;;;;5007806;28;20318;-66
2021/01/06 12:43:00;;;;;;;;;;;;;;;;;;5009824;28;19956;-66
2021/01/06 12:45:27;;;;;;;;;;;;;;;;;;5008690;28;20057;-66
2021/01/06 12:47:54;;;;;;;;;;;;;;;;;;5010451;28;20289;-66
2021/01/06 12:50:22;;;;;;;;;;;;;;;;;;5009042;28;19972;-67
2021/01/06 12:52:49;;;;;;;;;;;;;;;;;;5008330;28;20393;-66
2021/01/06 12:55:16;;;;;;;;;;;;;;;;;;5002711;28;19976;-68
2021/01/06 12:57:43;;;;;;;;;;;;;;;;;;4998055;28;20311;-66
2021/01/06 13:00:11;;;;;;;;;;;;;;;;;;4995953;28;19934;-67
2021/01/06 13:02:38;;;;;;;;;;;;;;;;;;5008559;28;19925;-68
2021/01/06 13:05:05;;;;;;;;;;;;;;;;;;5005898;28;19980;-67
2021/01/06 13:07:33;;;;;;;;;;;;;;;;;;5004318;28;19938;-67
2021/01/06 13:10:00;;;;;;;;;;;;;;;;;;5005706;28;19972;-66
2021/01/06 13:12:27;;;;;;;;;;;;;;;;;;5004569;28;19934;-66
2021/01/06 13:14:54;;;;;;;;;;;;;;;;;;4997780;28;20363;-68
2021/01/06 13:17:21;;;;;;;;;;;;;;;;;;4990595;28;19981;-67
2021/01/06 13:19:49;;;;;;;;;;;;;;;;;;5005117;28;19935;-67
2021/01/06 13:22:16;;;;;;;;;;;;;;;;;;5003820;28;20028;-67
2021/01/06 13:24:43;;;;;;;;;;;;;;;;;;4998385;28;19929;-68
2021/01/06 13:27:24;;;;;;;;;;;;;;;;;;4994117;28;19929;-68
2021/01/06 13:29:51;;;;;;;;;;;;;;;;;;4997996;28;19973;-68
2021/01/06 13:32:18;;;;;;;;;;;;;;;;;;5005869;28;20005;-67
2021/01/06 13:34:45;;;;;;;;;;;;;;;;;;5003181;28;19929;-69
2021/01/06 13:37:13;;;;;;;;;;;;;;;;;;5006911;28;20463;-69
2021/01/06 13:39:41;;;;;;;;;;;;;;;;;;4992359;28;19929;-67
2021/01/06 13:42:09;;;;;;;;;;;;;;;;;;5002754;28;19929;-66
2021/01/06 13:44:37;;;;;;;;;;;;;;;;;;5008112;28;20024;-66
2021/01/06 13:47:04;;;;;;;;;;;;;;;;;;5004102;28;20004;-67
2021/01/06 13:49:32;;;;;;;;;;;;;;;;;;5006443;28;19933;-66
2021/01/06 13:51:59;;;;;;;;;;;;;;;;;;5005804;28;19965;-67
2021/01/06 13:54:26;;;;;;;;;;;;;;;;;;5007711;28;19936;-67
2021/01/06 13:56:53;;;;;;;;;;;;;;;;;;5004077;28;20027;-66
2021/01/06 13:59:20;;;;;;;;;;;;;;;;;;5007260;28;20290;-66
2021/01/06 14:01:48;;;;;;;;;;;;;;;;;;5003713;28;20020;-66
2021/01/06 14:04:15;;;;;;;;;;;;;;;;;;5005536;28;19925;-67
2021/01/06 14:06:42;;;;;;;;;;;;;;;;;;5005074;28;19929;-66
2021/01/06 14:09:09;;;;;;;;;;;;;;;;;;5007057;28;19930;-67
2021/01/06 14:11:36;;;;;;;;;;;;;;;;;;5008020;28;20488;-66
2021/01/06 14:14:03;;;;;;;;;;;;;;;;;;5006798;28;19929;-66
2021/01/06 14:16:31;;;;;;;;;;;;;;;;;;5003482;28;19934;-67
2021/01/06 14:19:00;;;;;;;;;;;;;;;;;;4995578;28;19929;-66
2021/01/06 14:21:33;;;;;;;;;;;;;;;;;;5006348;28;19933;-66
2021/01/06 14:24:00;;;;;;;;;;;;;;;;;;5008438;28;19976;-66
2021/01/06 14:26:28;;;;;;;;;;;;;;;;;;4994894;28;19929;-66
2021/01/06 14:28:56;;;;;;;;;;;;;;;;;;5007167;28;19961;-69
2021/01/06 14:31:24;;;;;;;;;;;;;;;;;;5004949;28;19939;-67
2021/01/06 14:33:51;;;;;;;;;;;;;;;;;;4999180;28;19933;-67
2021/01/06 14:36:18;;;;;;;;;;;;;;;;;;5005945;28;19932;-68
2021/01/06 14:38:46;;;;;;;;;;;;;;;;;;5005160;28;19929;-67
2021/01/06 14:41:13;;;;;;;;;;;;;;;;;;4998719;28;20374;-66
2021/01/06 14:43:40;;;;;;;;;;;;;;;;;;5006244;28;20020;-66
2021/01/06 14:46:07;;;;;;;;;;;;;;;;;;5006896;28;19929;-67
2021/01/06 14:48:34;;;;;;;;;;;;;;;;;;5006375;28;19976;-66
2021/01/06 14:51:01;;;;;;;;;;;;;;;;;;5006890;28;20397;-66
2021/01/06 14:53:28;;;;;;;;;;;;;;;;;;5008371;28;20373;-67
2021/01/06 14:55:56;;;;;;;;;;;;;;;;;;5010422;28;19992;-67
2021/01/06 14:58:23;;;;;;;;;;;;;;;;;;5009504;28;19929;-67
2021/01/06 15:00:54;;;;;;;;;;;;;;;;;;5008819;28;20285;-68
2021/01/06 15:03:21;;;;;;;;;;;;;;;;;;5006591;28;19933;-67
2021/01/06 15:05:48;;;;;;;;;;;;;;;;;;5010793;28;19959;-67
2021/01/06 15:08:15;;;;;;;;;;;;;;;;;;5010383;28;20489;-68
2021/01/06 15:10:42;;;;;;;;;;;;;;;;;;5010193;28;20350;-67
2021/01/06 15:13:10;;;;;;;;;;;;;;;;;;5010133;28;19984;-67
2021/01/06 15:15:38;;;;;;;;;;;;;;;;;;5009970;28;19935;-68
2021/01/06 15:18:05;;;;;;;;;;;;;;;;;;5008366;28;19938;-66
2021/01/06 15:20:32;;;;;;;;;;;;;;;;;;5010009;28;20020;-66
2021/01/06 15:22:59;;;;;;;;;;;;;;;;;;5010360;28;19926;-67
2021/01/06 15:25:28;;;;;;;;;;;;;;;;;;5009436;28;19930;-67
2021/01/06 15:27:56;;;;;;;;;;;;;;;;;;5009907;28;19992;-68
2021/01/06 15:30:23;;;;;;;;;;;;;;;;;;5009816;28;19933;-68
2021/01/06 15:32:50;;;;;;;;;;;;;;;;;;5003372;28;19926;-68
2021/01/06 15:35:19;;;;;;;;;;;;;;;;;;5009938;28;19929;-67
2021/01/06 15:37:46;;;;;;;;;;;;;;;;;;5005034;28;19998;-68
2021/01/06 15:40:14;;;;;;;;;;;;;;;;;;5008619;28;20360;-68
2021/01/06 15:42:41;;;;;;;;;;;;;;;;;;5010277;28;19934;-68
2021/01/06 15:45:08;;;;;;;;;;;;;;;;;;5010234;28;19937;-68
2021/01/06 15:47:35;;;;;;;;;;;;;;;;;;4999619;28;19930;-68
2021/01/06 15:50:03;;;;;;;;;;;;;;;;;;5009627;28;19936;-68
2021/01/06 15:52:30;;;;;;;;;;;;;;;;;;5008813;28;20343;-68
2021/01/06 15:54:58;;;;;;;;;;;;;;;;;;5009374;28;19936;-68
2021/01/06 15:57:25;;;;;;;;;;;;;;;;;;5015018;28;20360;-68
2021/01/06 15:59:52;;;;;;;;;;;;;;;;;;5017742;28;20351;-67
2021/01/06 16:02:20;;;;;;;;;;;;;;;;;;5010261;28;19957;-68
2021/01/06 16:04:47;;;;;;;;;;;;;;;;;;5005848;28;19934;-68
2021/01/06 16:07:14;;;;;;;;;;;;;;;;;;5005462;28;19980;-67
2021/01/06 16:09:41;;;;;;;;;;;;;;;;;;5009146;28;19937;-68
2021/01/06 16:12:09;;;;;;;;;;;;;;;;;;5006997;28;19933;-68
2021/01/06 16:14:36;;;;;;;;;;;;;;;;;;5006628;28;20064;-68
2021/01/06 16:17:06;;;;;;;;;;;;;;;;;;5008850;28;20428;-68
2021/01/06 16:19:33;;;;;;;;;;;;;;;;;;5008746;28;19936;-68
2021/01/06 16:22:00;;;;;;;;;;;;;;;;;;5007488;28;19929;-68
2021/01/06 16:24:28;;;;;;;;;;;;;;;;;;5010116;28;19933;-68
2021/01/06 16:26:55;;;;;;;;;;;;;;;;;;5004664;28;19937;-68
2021/01/06 16:29:22;;;;;;;;;;;;;;;;;;5007303;28;20348;-68
2021/01/06 16:31:50;;;;;;;;;;;;;;;;;;5007750;28;19995;-68
2021/01/06 16:34:17;;;;;;;;;;;;;;;;;;5007664;28;19940;-68
2021/01/06 16:36:44;;;;;;;;;;;;;;;;;;5007746;28;19930;-68
2021/01/06 16:39:12;;;;;;;;;;;;;;;;;;5007299;28;19958;-68
2021/01/06 16:41:39;;;;;;;;;;;;;;;;;;5002559;28;20511;-68
2021/01/06 16:44:07;;;;;;;;;;;;;;;;;;5007717;28;19979;-68
2021/01/06 16:46:34;;;;;;;;;;;;;;;;;;5007970;28;20300;-68